KMBS/MBS METAR and TAF weather

Enter ICAO airport designator
Station Type Date Time Source
KMBS METAR 2021/01/22 06:23 UTC NOAA

KMBS 220623Z AUTO 31019G25KT 6SM -SN FEW019 SCT026 OVC032 M01/M04 A2967 RMK AO2 PK WND 27029/0606 SNB00 P0000 T10111044


Station Type Date Time Source
KMBS Decoded METAR 2021/01/22 06:23 UTC NOAA

MBS INTERNATIONAL AIRPORT, MI, United States (KMBS) 43-32N 084-05W 202M
Jan 22, 2021 - 01:23 AM EST / 2021.01.22 0623 UTC
Wind: from the NW (310 degrees) at 22 MPH (19 KT) gusting to 29 MPH (25 KT):0
Visibility: 6 mile(s):0
Sky conditions: overcast
Weather: light snow
Precipitation last hour: A trace
Temperature: 30.0 F (-1.1 C)
Windchill: 17 F (-8 C):1
Dew Point: 24.1 F (-4.4 C)
Relative Humidity: 78%
Pressure (altimeter): 29.67 in. Hg (1004 hPa)
ob: KMBS 220623Z AUTO 31019G25KT 6SM -SN FEW019 SCT026 OVC032 M01/M04 A2967 RMK AO2 PK WND 27029/0606 SNB00 P0000 T10111044
cycle: 6

Station Type Date Time Source
KMBS TAF 2021/01/22 06:24 UTC NOAA

TAF KMBS 220523Z 2206/2306 32013G20KT P6SM BKN025 OVC040
TEMPO 2206/2208 2SM -SN OVC015
FM220900 32013G20KT P6SM SCT025 BKN040
FM221600 29015G25KT P6SM -SHSN BKN040
FM230100 29013KT P6SM SCT040

Example: see airport list